Time;durP1;ratioP1;P1;durP2;ratioP2;P2;SDS_P1;SDS_P2;PMS_P1;PMS_P2;Temp;Humidity;BMP_temperature;BMP_pressure;BME280_temperature;BME280_humidity;BME280_pressure;Samples;Min_cycle;Max_cycle;Signal;HPM_P1;HPM_P2
2023/06/05 00:00:32;;;;;;;6.55;4.20;;;;;;;10.83;73.64;102065.06;5026990;28;20033;-83
2023/06/05 00:02:58;;;;;;;4.68;3.50;;;;;;;10.83;73.64;102057.81;5025721;28;20052;-83
2023/06/05 00:05:25;;;;;;;6.28;4.03;;;;;;;10.78;73.67;102065.56;5029925;28;20022;-83
2023/06/05 00:07:51;;;;;;;7.22;4.80;;;;;;;10.70;74.07;102068.25;5031297;28;20041;-83
2023/06/05 00:10:16;;;;;;;6.72;3.78;;;;;;;10.67;74.07;102072.13;5029401;28;20048;-83
2023/06/05 00:12:44;;;;;;;6.00;4.20;;;;;;;10.66;74.19;102073.13;5031207;28;20032;-83
2023/06/05 00:15:09;;;;;;;7.45;4.90;;;;;;;10.60;74.52;102061.19;5031129;28;20029;-83
2023/06/05 00:17:36;;;;;;;5.70;3.83;;;;;;;10.57;74.74;102071.44;5029304;28;20060;-83
2023/06/05 00:20:02;;;;;;;8.45;4.57;;;;;;;10.54;74.93;102066.41;5032562;28;20093;-83
2023/06/05 00:22:33;;;;;;;5.60;4.18;;;;;;;10.53;75.27;102064.72;5047620;28;20017;-82
2023/06/05 00:24:59;;;;;;;7.00;4.60;;;;;;;10.49;75.26;102060.66;5034388;28;20022;-83
2023/06/05 00:27:24;;;;;;;7.90;4.95;;;;;;;10.45;75.13;102055.59;5023001;28;20040;-82
2023/06/05 00:29:50;;;;;;;7.75;4.68;;;;;;;10.42;75.77;102064.00;5032133;28;20029;-85
2023/06/05 00:32:15;;;;;;;8.35;4.90;;;;;;;10.37;75.58;102060.09;5011026;28;20083;-80
2023/06/05 00:34:40;;;;;;;;;;;;;;;10.28;76.35;102056.56;5022163;28;20045;-81
2023/06/05 00:37:06;;;;;;;5.10;4.50;;;;;;;10.26;76.09;102067.50;5029075;28;19970;-81
2023/06/05 00:39:32;;;;;;;6.32;4.63;;;;;;;10.28;76.13;102059.25;5029909;28;20338;-81
2023/06/05 00:41:57;;;;;;;8.75;4.60;;;;;;;10.25;76.32;102065.81;5030345;28;20489;-81
2023/06/05 00:44:23;;;;;;;;;;;;;;;10.19;76.85;102062.94;5028657;28;20041;-81
2023/06/05 00:46:49;;;;;;;7.47;4.97;;;;;;;10.13;76.35;102054.50;5026056;28;20008;-81
2023/06/05 00:49:14;;;;;;;8.23;4.90;;;;;;;10.09;76.71;102061.22;5028535;28;20280;-81
2023/06/05 00:51:40;;;;;;;6.53;4.90;;;;;;;10.07;77.07;102059.72;5035706;28;20028;-82
2023/06/05 00:54:05;;;;;;;;;;;;;;;9.99;77.46;102058.66;5029929;28;20556;-81
2023/06/05 00:56:35;;;;;;;5.90;4.65;;;;;;;9.94;77.13;102057.47;5029919;28;19927;-81
2023/06/05 00:59:00;;;;;;;7.18;5.00;;;;;;;9.92;77.59;102062.16;5015558;28;20036;-81
2023/06/05 01:01:28;;;;;;;7.18;5.28;;;;;;;9.92;77.79;102062.16;5031995;28;20385;-81
2023/06/05 01:03:59;;;;;;;6.80;4.80;;;;;;;9.89;78.14;102067.88;5046361;28;20104;-82
2023/06/05 01:06:26;;;;;;;11.05;5.43;;;;;;;9.86;77.96;102063.66;5049423;28;20057;-82
2023/06/05 01:08:52;;;;;;;6.38;5.22;;;;;;;9.78;77.78;102066.34;5048876;28;20041;-81
2023/06/05 01:11:35;;;;;;;7.18;5.15;;;;;;;9.71;78.53;102069.66;5012206;28;20128;-81
2023/06/05 01:14:22;;;;;;;11.50;5.75;;;;;;;9.69;78.52;102065.47;5031827;28;20082;-81
2023/06/05 01:16:48;;;;;;;8.65;5.40;;;;;;;9.66;78.22;102068.47;5028449;28;20349;-81
2023/06/05 01:19:14;;;;;;;9.27;5.82;;;;;;;9.61;78.87;102063.59;5046264;28;20083;-81
2023/06/05 01:21:39;;;;;;;;;;;;;;;9.54;79.41;102066.03;5048806;28;20400;-83
2023/06/05 01:24:05;;;;;;;7.60;5.67;;;;;;;9.51;78.95;102066.38;5046497;28;19917;-83
2023/06/05 01:26:38;;;;;;;7.47;5.65;;;;;;;9.48;79.21;102061.31;5046617;28;20480;-81
2023/06/05 01:29:04;;;;;;;8.43;6.18;;;;;;;9.48;79.63;102064.00;5032160;28;20033;-81
2023/06/05 01:31:34;;;;;;;11.40;6.10;;;;;;;9.42;80.13;102061.94;5026679;28;20021;-81
2023/06/05 01:34:07;;;;;;;12.43;6.18;;;;;;;9.41;80.53;102060.25;5011989;28;20033;-81
2023/06/05 01:36:32;;;;;;;9.80;5.80;;;;;;;9.43;80.06;102066.31;5014516;28;20112;-81
2023/06/05 01:38:57;;;;;;;;;;;;;;;9.36;79.88;102063.44;5017401;28;20120;-81
2023/06/05 01:41:23;;;;;;;6.87;6.07;;;;;;;9.33;80.06;102055.69;5050346;28;19928;-81
2023/06/05 01:43:48;;;;;;;7.78;5.50;;;;;;;9.31;80.42;102070.28;5011098;28;20032;-81
2023/06/05 01:46:14;;;;;;;;;;;;;;;9.28;80.50;102068.75;5026355;28;20068;-81
2023/06/05 01:48:40;;;;;;;10.43;6.22;;;;;;;9.22;80.94;102061.34;5047123;28;19916;-81
2023/06/05 01:51:05;;;;;;;;;;;;;;;9.19;80.92;102056.28;5052860;28;20035;-81
2023/06/05 01:53:30;;;;;;;10.67;6.20;;;;;;;9.14;81.45;102056.75;5052498;28;19924;-81
2023/06/05 01:55:59;;;;;;;;;;;;;;;9.07;81.66;102053.00;5029955;28;20033;-81
2023/06/05 01:58:26;;;;;;;9.45;5.60;;;;;;;9.08;81.71;102058.22;5045229;28;20537;-82
2023/06/05 02:00:56;;;;;;;8.57;6.05;;;;;;;9.08;81.19;102047.50;5049678;28;20486;-83
2023/06/05 02:03:22;;;;;;;8.30;5.82;;;;;;;9.06;81.95;102051.31;5047141;28;20565;-81
2023/06/05 02:05:48;;;;;;;10.40;6.07;;;;;;;9.01;82.28;102043.72;5054886;28;20025;-81
2023/06/05 02:08:19;;;;;;;;;;;;;;;8.95;82.11;102044.34;5051023;28;20032;-81
2023/06/05 02:10:45;;;;;;;10.02;6.78;;;;;;;8.91;81.67;102038.47;5049147;28;19946;-81
2023/06/05 02:13:11;;;;;;;11.25;6.32;;;;;;;8.90;81.90;102039.47;5052287;28;20037;-81
2023/06/05 02:15:36;;;;;;;;;;;;;;;8.84;82.02;102036.56;5052634;28;20399;-81
2023/06/05 02:18:04;;;;;;;10.70;6.90;;;;;;;8.78;82.54;102038.03;5049876;28;20338;-81
2023/06/05 02:20:30;;;;;;;9.13;6.18;;;;;;;8.73;82.49;102033.13;5042844;28;20025;-81
2023/06/05 02:22:57;;;;;;;10.60;6.90;;;;;;;8.70;83.43;102029.91;5052506;28;20024;-81
2023/06/05 02:25:25;;;;;;;8.13;6.18;;;;;;;8.63;83.03;102037.72;5046863;28;20388;-81
2023/06/05 02:27:51;;;;;;;9.18;6.28;;;;;;;8.61;82.94;102040.56;5052410;28;20370;-82
2023/06/05 02:30:16;;;;;;;;;;;;;;;8.55;83.14;102027.75;5059039;28;20024;-81
2023/06/05 02:32:43;;;;;;;12.95;6.82;;;;;;;8.56;83.01;102037.50;5055375;28;19917;-81
2023/06/05 02:35:09;;;;;;;12.75;6.97;;;;;;;8.50;83.31;102030.06;5054266;28;20029;-81
2023/06/05 02:37:37;;;;;;;11.23;6.43;;;;;;;8.48;83.55;102037.41;5056106;28;20021;-81
2023/06/05 02:40:07;;;;;;;10.55;6.65;;;;;;;8.49;83.96;102037.28;5074369;28;20020;-80
2023/06/05 02:42:41;;;;;;;12.77;6.85;;;;;;;8.43;83.81;102035.16;5056165;28;20025;-81
2023/06/05 02:45:07;;;;;;;9.82;6.78;;;;;;;8.44;84.27;102030.66;5053260;28;20048;-81
2023/06/05 02:47:33;;;;;;;12.50;7.00;;;;;;;8.43;83.73;102029.81;5049817;28;20040;-81
2023/06/05 02:49:58;;;;;;;;;;;;;;;8.38;84.62;102037.50;5054217;28;20151;-81
2023/06/05 02:52:27;;;;;;;9.70;5.93;;;;;;;8.37;83.90;102029.56;5051655;28;20368;-81
2023/06/05 02:54:53;;;;;;;11.63;7.40;;;;;;;8.39;84.59;102022.22;5050044;28;20090;-80
2023/06/05 02:57:18;;;;;;;;;;;;;;;8.43;84.38;102023.59;5051851;28;20064;-81
2023/06/05 02:59:44;;;;;;;9.75;6.47;;;;;;;8.39;84.42;102019.53;5041783;28;19913;-81
2023/06/05 03:02:09;;;;;;;;;;;;;;;8.36;84.62;102028.75;5051665;28;20575;-81
2023/06/05 03:04:35;;;;;;;10.05;6.80;;;;;;;8.34;84.64;102025.38;5053284;28;19917;-81
2023/06/05 03:07:04;;;;;;;;;;;;;;;8.28;84.93;102021.47;5058042;28;20017;-81
2023/06/05 03:09:30;;;;;;;10.80;6.50;;;;;;;8.29;84.87;102022.28;5048816;28;19919;-82
2023/06/05 03:11:56;;;;;;;9.30;6.88;;;;;;;8.25;85.08;102016.41;5054754;28;20091;-82
2023/06/05 03:14:22;;;;;;;10.77;7.20;;;;;;;8.20;85.37;102013.31;5050163;28;20036;-82
2023/06/05 03:16:47;;;;;;;;;;;;;;;8.19;85.52;102012.50;5049306;28;20408;-82
2023/06/05 03:19:12;;;;;;;9.67;6.47;;;;;;;8.19;85.83;102011.63;5037149;28;19943;-82
2023/06/05 03:21:39;;;;;;;;;;;;;;;8.13;85.49;102013.09;5047643;28;20025;-82
2023/06/05 03:24:12;;;;;;;10.48;6.55;;;;;;;8.09;84.92;102011.69;5049641;28;19950;-82
2023/06/05 03:26:39;;;;;;;10.15;6.60;;;;;;;8.09;85.63;102011.69;5050656;28;20025;-82
2023/06/05 03:29:05;;;;;;;10.75;6.43;;;;;;;8.08;85.47;102018.06;5050864;28;20122;-82
2023/06/05 03:31:30;;;;;;;;;;;;;;;8.05;85.79;102018.34;5052477;28;20024;-80
2023/06/05 03:33:59;;;;;;;10.43;6.75;;;;;;;8.09;85.89;102013.56;5047650;28;19916;-82
2023/06/05 03:36:25;;;;;;;13.57;6.95;;;;;;;8.08;85.46;102014.56;5052003;28;20098;-81
2023/06/05 03:38:51;;;;;;;;;;;;;;;8.07;85.32;102013.69;5050239;28;20476;-81
2023/06/05 03:41:16;;;;;;;9.50;6.70;;;;;;;8.07;85.59;102002.13;5050623;28;20098;-81
2023/06/05 03:43:41;;;;;;;;;;;;;;;8.07;85.46;102002.13;5050699;28;20029;-82
2023/06/05 03:46:07;;;;;;;9.88;7.00;;;;;;;8.12;85.29;102011.41;5052509;28;19967;-82
2023/06/05 03:48:32;;;;;;;;;;;;;;;8.13;85.70;102009.56;5048578;28;20057;-82
2023/06/05 03:51:00;;;;;;;11.77;7.37;;;;;;;8.17;85.46;102006.44;5052816;28;20275;-82
2023/06/05 03:53:29;;;;;;;9.93;6.45;;;;;;;8.18;84.85;102004.59;5052318;28;20056;-83
2023/06/05 03:55:54;;;;;;;10.23;6.95;;;;;;;8.25;84.98;101996.75;5050496;28;20033;-83
2023/06/05 03:58:20;;;;;;;;;;;;;;;8.26;84.80;102012.72;5050989;28;20471;-83
2023/06/05 04:00:48;;;;;;;10.82;6.80;;;;;;;8.32;84.44;102011.25;5047789;28;20311;-82
2023/06/05 04:03:14;;;;;;;12.00;7.32;;;;;;;8.37;84.84;102005.44;5033094;28;20107;-83
2023/06/05 04:05:41;;;;;;;;;;;;;;;8.39;84.85;102012.31;5052316;28;20029;-77
2023/06/05 04:08:07;;;;;;;13.02;6.68;;;;;;;8.48;85.65;102013.25;5050689;28;19917;-79
2023/06/05 04:10:32;;;;;;;;;;;;;;;8.54;85.00;102009.97;5040180;28;20036;-79
2023/06/05 04:12:58;;;;;;;11.17;7.17;;;;;;;8.58;84.25;102010.50;5052170;28;19912;-87
2023/06/05 04:15:23;;;;;;;;;;;;;;;8.63;84.23;102011.75;5047683;28;20100;-80
2023/06/05 04:17:49;;;;;;;10.10;7.10;;;;;;;8.69;83.61;102012.97;5043590;28;19931;-79
2023/06/05 04:20:14;;;;;;;;;;;;;;;8.72;83.29;102009.97;5046214;28;20032;-82
2023/06/05 04:22:42;;;;;;;11.17;6.73;;;;;;;8.79;83.62;102010.19;5046329;28;19913;-82
2023/06/05 04:25:10;;;;;;;10.27;7.07;;;;;;;8.91;83.48;102016.97;5045880;28;20033;-81
2023/06/05 04:27:37;;;;;;;11.27;6.78;;;;;;;9.16;82.14;102019.84;5050937;28;20104;-83
2023/06/05 04:30:03;;;;;;;11.98;7.68;;;;;;;9.30;81.45;102025.63;5037343;28;20095;-83
2023/06/05 04:32:34;;;;;;;12.48;7.55;;;;;;;9.54;80.54;102024.88;5051341;28;20112;-84
2023/06/05 04:35:00;;;;;;;14.10;7.93;;;;;;;10.05;79.24;102024.06;5051814;28;20469;-83
2023/06/05 04:37:25;;;;;;;13.38;8.27;;;;;;;10.61;76.25;102025.16;5049235;28;20029;-83
2023/06/05 04:39:51;;;;;;;11.07;7.78;;;;;;;11.04;74.39;102030.34;5052538;28;20029;-83
2023/06/05 04:42:17;;;;;;;12.15;7.75;;;;;;;11.49;73.08;102021.78;5053298;28;20033;-83
2023/06/05 04:44:52;;;;;;;11.45;7.93;;;;;;;11.61;71.69;102024.97;5050454;28;20112;-83
2023/06/05 04:47:17;;;;;;;12.35;8.00;;;;;;;11.74;71.24;102024.41;5044833;28;20036;-83
2023/06/05 04:49:42;;;;;;;12.30;7.75;;;;;;;12.14;70.86;102019.84;5052067;28;20028;-83
2023/06/05 04:52:08;;;;;;;11.65;8.25;;;;;;;12.30;69.37;102024.28;5048660;28;20503;-83
2023/06/05 04:54:36;;;;;;;13.63;8.65;;;;;;;12.19;68.94;102027.41;5063148;28;20029;-83
2023/06/05 04:57:01;;;;;;;13.38;8.15;;;;;;;12.36;68.96;102030.81;5069424;28;20030;-83
2023/06/05 04:59:27;;;;;;;13.27;8.77;;;;;;;12.60;67.78;102029.81;5049050;28;20040;-82
2023/06/05 05:01:54;;;;;;;10.98;8.13;;;;;;;12.84;67.42;102020.63;5038760;28;20036;-82
2023/06/05 05:04:22;;;;;;;12.52;8.15;;;;;;;13.52;64.67;102030.59;5045476;28;20388;-82
2023/06/05 05:06:47;;;;;;;14.27;8.45;;;;;;;13.88;64.06;102026.25;5050969;28;20027;-82
2023/06/05 05:09:13;;;;;;;12.80;7.65;;;;;;;14.42;61.98;102038.50;5048058;28;20392;-82
2023/06/05 05:11:39;;;;;;;10.43;7.88;;;;;;;14.89;60.44;102032.69;5049502;28;20021;-83
2023/06/05 05:14:05;;;;;;;13.15;8.20;;;;;;;14.70;60.03;102027.72;5050585;28;20029;-82
2023/06/05 05:16:31;;;;;;;15.40;8.02;;;;;;;15.09;59.52;102027.41;5048975;28;20435;-82
2023/06/05 05:19:02;;;;;;;11.88;7.32;;;;;;;15.33;58.47;102020.66;5031597;28;20025;-82
2023/06/05 05:21:27;;;;;;;13.18;7.95;;;;;;;15.50;57.81;102029.31;5048993;28;20437;-82
2023/06/05 05:23:53;;;;;;;11.30;7.82;;;;;;;15.74;57.06;102029.81;5031494;28;20021;-82
2023/06/05 05:26:18;;;;;;;11.80;8.10;;;;;;;15.83;56.88;102028.63;5054885;28;20025;-82
2023/06/05 05:28:44;;;;;;;9.80;7.63;;;;;;;16.19;56.03;102032.09;5054261;28;20136;-82
2023/06/05 05:31:09;;;;;;;11.43;8.20;;;;;;;15.54;57.03;102025.13;5057239;28;20500;-82
2023/06/05 05:33:35;;;;;;;12.38;7.80;;;;;;;15.69;57.56;102027.72;5056067;28;20025;-82
2023/06/05 05:36:00;;;;;;;11.27;8.10;;;;;;;15.94;56.34;102034.53;5056765;28;20037;-82
2023/06/05 05:38:26;;;;;;;11.35;7.57;;;;;;;16.35;55.44;102022.72;5062011;28;20360;-82
2023/06/05 05:40:51;;;;;;;9.90;7.47;;;;;;;16.32;55.07;102025.84;5066758;28;20066;-82
2023/06/05 05:43:19;;;;;;;10.18;7.15;;;;;;;16.40;55.15;102035.69;5038181;28;20017;-82
2023/06/05 05:45:45;;;;;;;10.80;7.35;;;;;;;16.59;54.95;102036.78;5038825;28;20426;-82
2023/06/05 05:48:11;;;;;;;11.77;7.53;;;;;;;17.06;53.52;102043.06;5056311;28;20103;-82
2023/06/05 05:50:39;;;;;;;11.45;7.43;;;;;;;17.19;52.65;102035.91;5057668;28;20041;-82
2023/06/05 05:53:05;;;;;;;10.80;6.78;;;;;;;17.28;52.57;102048.25;5056141;28;20057;-81
2023/06/05 05:55:33;;;;;;;10.40;6.88;;;;;;;17.67;51.57;102038.28;5055288;28;20035;-82
2023/06/05 05:57:59;;;;;;;10.10;6.90;;;;;;;17.62;51.46;102043.56;5055953;28;20107;-82
2023/06/05 06:00:25;;;;;;;7.53;6.50;;;;;;;17.61;51.58;102033.69;5053496;28;20556;-81
2023/06/05 06:02:52;;;;;;;10.05;7.20;;;;;;;17.52;51.78;102041.28;5053507;28;20026;-82
2023/06/05 06:05:18;;;;;;;12.05;7.20;;;;;;;18.02;50.63;102046.09;5052928;28;20056;-82
2023/06/05 06:07:43;;;;;;;10.95;7.13;;;;;;;17.96;50.40;102033.34;5045378;28;20032;-82
2023/06/05 06:10:09;;;;;;;11.23;7.28;;;;;;;18.17;50.35;102043.09;5056125;28;20036;-80
2023/06/05 06:12:34;;;;;;;11.00;6.95;;;;;;;18.92;48.92;102044.22;5054829;28;20021;-79
2023/06/05 06:15:00;;;;;;;10.98;6.88;;;;;;;19.29;47.66;102039.88;5054531;28;20045;-79
2023/06/05 06:17:27;;;;;;;9.55;6.78;;;;;;;19.65;46.09;102052.72;5056548;28;20040;-83
2023/06/05 06:19:52;;;;;;;10.48;7.40;;;;;;;19.38;47.19;102052.19;5056681;28;20033;-83
2023/06/05 06:22:18;;;;;;;10.23;6.85;;;;;;;19.41;46.79;102057.22;5036195;28;20029;-83
2023/06/05 06:24:43;;;;;;;10.20;7.30;;;;;;;19.63;46.57;102054.00;5055221;28;20561;-82
2023/06/05 06:27:12;;;;;;;9.68;7.03;;;;;;;20.21;45.39;102057.28;5052792;28;20366;-82
2023/06/05 06:29:48;;;;;;;7.60;6.43;;;;;;;20.58;44.17;102059.88;5055406;28;20380;-82
2023/06/05 06:32:15;;;;;;;10.90;6.95;;;;;;;20.58;44.27;102065.34;5039980;28;20041;-82
2023/06/05 06:34:41;;;;;;;11.48;6.50;;;;;;;20.43;44.41;102057.56;5055023;28;20140;-82
2023/06/05 06:37:07;;;;;;;8.73;6.72;;;;;;;20.50;44.46;102063.78;5054443;28;20123;-82
2023/06/05 06:39:32;;;;;;;10.10;7.10;;;;;;;20.71;44.21;102070.59;5053326;28;20021;-82
2023/06/05 06:42:00;;;;;;;9.27;6.47;;;;;;;21.85;41.50;102066.88;5053429;28;20464;-82
2023/06/05 06:44:28;;;;;;;8.43;6.38;;;;;;;21.38;42.18;102063.16;5052187;28;20025;-82
2023/06/05 06:46:53;;;;;;;8.60;6.45;;;;;;;22.07;41.05;102064.28;5051401;28;20039;-82
2023/06/05 06:49:21;;;;;;;8.27;6.60;;;;;;;21.94;40.76;102060.75;5051995;28;20400;-82
2023/06/05 06:51:47;;;;;;;10.70;6.95;;;;;;;21.47;42.12;102063.63;5051507;28;20047;-82
2023/06/05 06:54:12;;;;;;;10.45;6.88;;;;;;;21.32;42.15;102069.56;5051708;28;20025;-82
2023/06/05 06:56:38;;;;;;;9.75;6.82;;;;;;;21.84;41.30;102060.56;5053882;28;20024;-82
2023/06/05 06:59:14;;;;;;;10.13;6.75;;;;;;;21.56;41.74;102062.16;5048705;28;20072;-83
2023/06/05 07:01:50;;;;;;;9.20;6.50;;;;;;;22.26;40.91;102060.25;5049924;28;20040;-82
2023/06/05 07:04:16;;;;;;;10.98;7.43;;;;;;;22.21;40.97;102068.41;5036016;28;20055;-83
2023/06/05 07:06:44;;;;;;;9.23;6.80;;;;;;;22.68;40.11;102074.72;5053440;28;20036;-83
2023/06/05 07:09:10;;;;;;;11.73;7.05;;;;;;;22.43;40.22;102067.72;5048358;28;20025;-83
2023/06/05 07:11:35;;;;;;;10.52;6.75;;;;;;;23.18;38.62;102070.28;5068035;28;20028;-83
2023/06/05 07:14:01;;;;;;;10.25;7.18;;;;;;;23.08;39.37;102070.97;5051924;28;20024;-83
2023/06/05 07:16:26;;;;;;;7.70;6.55;;;;;;;23.18;38.71;102067.53;5050862;28;20062;-83
2023/06/05 07:18:53;;;;;;;10.35;6.80;;;;;;;23.95;37.94;102072.38;5045679;28;20108;-82
2023/06/05 07:21:18;;;;;;;10.30;6.85;;;;;;;24.68;36.46;102078.34;5052027;28;20040;-83
2023/06/05 07:23:47;;;;;;;11.50;6.70;;;;;;;24.24;36.63;102066.66;5030958;28;20029;-84
2023/06/05 07:26:15;;;;;;;9.60;6.68;;;;;;;23.88;37.39;102070.66;5030871;28;20021;-83
2023/06/05 07:28:41;;;;;;;12.48;7.63;;;;;;;23.61;37.92;102073.38;5050639;28;20036;-83
2023/06/05 07:31:07;;;;;;;8.80;7.13;;;;;;;23.45;37.59;102067.69;5050280;28;20036;-85
2023/06/05 07:33:32;;;;;;;8.30;7.40;;;;;;;23.61;37.60;102076.13;5032303;28;20021;-85
2023/06/05 07:35:59;;;;;;;9.05;7.03;;;;;;;23.35;37.96;102067.53;5050147;28;20086;-85
2023/06/05 07:38:26;;;;;;;10.13;7.18;;;;;;;23.71;37.74;102061.66;5052107;28;20106;-81
2023/06/05 07:40:52;;;;;;;8.13;6.95;;;;;;;23.81;37.57;102070.03;5051228;28;20024;-83
2023/06/05 07:43:17;;;;;;;10.65;6.85;;;;;;;23.85;37.23;102064.84;5052362;28;20029;-83
2023/06/05 07:45:44;;;;;;;12.10;6.85;;;;;;;24.39;36.39;102064.06;5047308;28;20029;-85
2023/06/05 07:48:10;;;;;;;14.65;7.28;;;;;;;25.17;35.30;102078.44;5046994;28;20033;-84
2023/06/05 07:50:35;;;;;;;10.40;7.10;;;;;;;25.70;33.86;102072.94;5050073;28;20116;-82
2023/06/05 07:53:03;;;;;;;9.07;6.50;;;;;;;25.95;33.58;102071.34;5049230;28;20029;-79
2023/06/05 07:55:29;;;;;;;8.57;7.43;;;;;;;24.04;36.29;102068.13;5049078;28;20123;-80
2023/06/05 07:57:57;;;;;;;7.88;6.50;;;;;;;24.17;37.17;102077.88;5049556;28;20033;-81
2023/06/05 08:00:23;;;;;;;8.77;6.47;;;;;;;25.54;34.38;102066.53;5050597;28;20650;-81
2023/06/05 08:02:48;;;;;;;9.50;6.78;;;;;;;26.13;33.91;102068.09;5044328;28;20036;-81
2023/06/05 08:05:16;;;;;;;8.93;6.70;;;;;;;25.55;34.03;102062.66;5033110;28;20032;-81
2023/06/05 08:07:41;;;;;;;9.38;6.93;;;;;;;24.91;35.13;102070.81;5051798;28;20079;-80
2023/06/05 08:10:15;;;;;;;8.45;6.70;;;;;;;25.32;34.77;102066.66;5053123;28;20025;-81
2023/06/05 08:12:40;;;;;;;8.60;6.95;;;;;;;25.99;33.51;102058.69;5050898;28;20572;-81
2023/06/05 08:15:12;;;;;;;11.55;7.18;;;;;;;26.28;33.19;102060.97;5051128;28;20029;-81
2023/06/05 08:17:37;;;;;;;10.32;6.50;;;;;;;27.20;31.82;102062.00;5051880;28;20021;-80
2023/06/05 08:20:05;;;;;;;9.02;6.50;;;;;;;26.91;31.81;102054.34;5051167;28;20090;-81
2023/06/05 08:22:30;;;;;;;7.53;6.43;;;;;;;26.09;33.93;102052.34;5051301;28;20361;-81
2023/06/05 08:24:57;;;;;;;9.15;6.30;;;;;;;26.86;32.11;102051.59;5052220;28;20039;-81
2023/06/05 08:27:22;;;;;;;7.75;6.00;;;;;;;27.67;30.64;102046.94;5050657;28;20033;-81
2023/06/05 08:29:47;;;;;;;10.35;6.65;;;;;;;26.89;32.41;102046.34;5051082;28;20504;-81
2023/06/05 08:32:13;;;;;;;7.90;6.00;;;;;;;27.14;32.09;102041.03;5034409;28;20043;-81
2023/06/05 08:34:41;;;;;;;8.88;6.63;;;;;;;27.32;32.00;102045.97;5052850;28;20025;-82
2023/06/05 08:37:07;;;;;;;8.55;6.53;;;;;;;27.17;31.50;102040.47;5050973;28;20021;-82
2023/06/05 08:39:35;;;;;;;7.90;6.18;;;;;;;27.37;31.08;102040.38;5053362;28;20031;-82
2023/06/05 08:42:03;;;;;;;9.27;5.95;;;;;;;27.86;30.67;102048.22;5034222;28;20021;-82
2023/06/05 08:44:29;;;;;;;10.88;6.13;;;;;;;28.24;30.29;102046.59;5050410;28;20488;-83
2023/06/05 08:47:00;;;;;;;8.75;6.35;;;;;;;29.09;28.96;102051.94;5053387;28;20024;-82
2023/06/05 08:49:29;;;;;;;9.93;7.05;;;;;;;28.00;30.66;102052.00;5038463;28;20092;-82
2023/06/05 08:51:58;;;;;;;8.00;6.30;;;;;;;28.70;29.94;102042.59;5057148;28;20032;-82
2023/06/05 08:54:25;;;;;;;8.52;6.20;;;;;;;28.35;30.36;102038.22;5052525;28;20025;-82
2023/06/05 08:56:53;;;;;;;8.25;6.22;;;;;;;28.58;30.27;102040.25;5030421;28;20032;-82
2023/06/05 08:59:20;;;;;;;6.70;5.72;;;;;;;28.57;30.34;102046.91;5050689;28;20110;-82
2023/06/05 09:01:49;;;;;;;8.30;5.70;;;;;;;28.78;29.73;102041.16;5005854;28;20036;-82
2023/06/05 09:04:14;;;;;;;11.82;5.90;;;;;;;29.45;28.56;102026.59;5050440;28;20044;-82
2023/06/05 09:06:40;;;;;;;8.68;5.60;;;;;;;30.08;27.86;102032.13;5028616;28;20029;-82
2023/06/05 09:09:07;;;;;;;8.10;6.07;;;;;;;30.05;27.84;102036.28;5017146;28;20029;-80
2023/06/05 09:11:32;;;;;;;10.27;6.70;;;;;;;29.61;28.55;102029.16;5046149;28;20437;-82
2023/06/05 09:14:01;;;;;;;9.63;5.93;;;;;;;29.39;28.73;102027.78;5049852;28;20549;-82
2023/06/05 09:16:45;;;;;;;8.73;6.00;;;;;;;29.85;27.90;102028.25;5051389;28;20028;-85
2023/06/05 09:19:11;;;;;;;7.53;6.40;;;;;;;29.08;29.05;102035.59;5045292;28;20032;-83
2023/06/05 09:21:39;;;;;;;8.05;5.60;;;;;;;29.44;28.86;102022.16;5040133;28;20029;-81
2023/06/05 09:24:18;;;;;;;8.50;6.03;;;;;;;30.46;27.21;102028.44;5043182;28;20047;-82
2023/06/05 09:26:51;;;;;;;6.90;6.25;;;;;;;30.34;27.03;102024.19;5049509;28;20041;-85
2023/06/05 09:29:24;;;;;;;7.82;6.15;;;;;;;29.91;27.97;102013.16;5048421;28;20487;-85
2023/06/05 09:31:51;;;;;;;6.43;5.72;;;;;;;30.43;27.03;102026.25;5049304;28;20056;-85
2023/06/05 09:34:21;;;;;;;8.45;5.97;;;;;;;30.73;26.82;102011.00;5048492;28;20028;-83
2023/06/05 09:36:46;;;;;;;6.95;6.00;;;;;;;30.16;27.34;102014.75;5030514;28;20041;-84
2023/06/05 09:39:16;;;;;;;8.20;5.93;;;;;;;30.38;27.61;102021.63;5049410;28;20025;-86
2023/06/05 09:41:46;;;;;;;8.35;5.95;;;;;;;30.21;27.54;102022.16;5050837;28;20119;-84
2023/06/05 09:44:11;;;;;;;7.43;6.03;;;;;;;29.90;27.69;102017.91;5050905;28;20021;-79
2023/06/05 09:47:13;;;;;;;9.07;6.40;;;;;;;29.93;28.08;102010.91;5049533;28;20039;-80
2023/06/05 09:49:41;;;;;;;10.93;6.40;;;;;;;30.19;27.55;102014.16;5051515;28;20041;-81
2023/06/05 09:52:07;;;;;;;10.75;5.70;;;;;;;30.82;27.32;102008.34;5050857;28;20060;-81
2023/06/05 09:54:33;;;;;;;7.07;5.55;;;;;;;30.57;27.22;102024.34;5048887;28;20373;-81
2023/06/05 09:57:02;;;;;;;9.40;6.32;;;;;;;30.97;26.83;102004.44;5033322;28;20068;-76
2023/06/05 09:59:29;;;;;;;8.32;6.05;;;;;;;31.15;26.44;102016.63;5050387;28;20033;-77
2023/06/05 10:01:55;;;;;;;9.25;6.28;;;;;;;30.31;26.61;102012.84;5046323;28;20021;-79
2023/06/05 10:04:25;;;;;;;7.43;5.43;;;;;;;30.80;26.26;102007.81;5048492;28;20028;-80
2023/06/05 10:06:51;;;;;;;6.00;5.10;;;;;;;30.92;26.05;102004.53;5041715;28;20033;-78
2023/06/05 10:09:17;;;;;;;14.40;6.65;;;;;;;31.25;25.83;102016.38;5029697;28;20170;-77
2023/06/05 10:11:42;;;;;;;9.52;6.57;;;;;;;30.95;26.28;102003.94;5031423;28;20017;-77
2023/06/05 10:14:08;;;;;;;9.18;6.28;;;;;;;30.48;26.79;102003.94;5031954;28;20369;-77
2023/06/05 10:16:34;;;;;;;7.97;7.18;;;;;;;30.64;26.76;101999.78;5053402;28;20040;-79
2023/06/05 10:18:59;;;;;;;9.63;6.43;;;;;;;29.49;28.38;101994.34;5032571;28;20028;-79
2023/06/05 10:21:25;;;;;;;9.90;6.65;;;;;;;30.09;27.30;101998.47;5052125;28;20039;-79
2023/06/05 10:24:11;;;;;;;7.50;5.78;;;;;;;29.74;27.97;101994.28;5054071;28;20025;-79
2023/06/05 10:26:56;;;;;;;8.35;6.47;;;;;;;29.49;28.99;101991.56;5051923;28;20029;-79
2023/06/05 10:29:49;;;;;;;7.57;6.00;;;;;;;30.60;27.51;101986.81;5032809;28;20029;-79
2023/06/05 10:32:20;;;;;;;8.02;6.00;;;;;;;31.33;26.30;101986.19;5034446;28;20029;-79
2023/06/05 10:34:52;;;;;;;8.60;5.80;;;;;;;31.55;25.88;101986.25;5052438;28;20028;-79
2023/06/05 10:37:55;;;;;;;7.05;6.25;;;;;;;31.34;26.24;101980.31;5034697;28;20067;-79
2023/06/05 10:40:21;;;;;;;7.32;6.10;;;;;;;31.19;25.72;101978.72;5037070;28;20036;-80
2023/06/05 10:42:46;;;;;;;8.88;5.85;;;;;;;31.70;25.13;101981.47;5014025;28;20033;-79
2023/06/05 10:45:28;;;;;;;7.90;5.82;;;;;;;31.02;25.85;101981.25;5028512;28;20464;-79
2023/06/05 10:47:53;;;;;;;8.02;5.28;;;;;;;31.53;26.18;101982.97;5005500;28;20053;-80
2023/06/05 10:50:20;;;;;;;6.20;5.40;;;;;;;31.92;25.06;101982.66;5034435;28;20024;-79
2023/06/05 10:52:49;;;;;;;9.73;5.65;;;;;;;31.93;25.76;101978.75;5051686;28;20029;-79
2023/06/05 10:55:17;;;;;;;7.57;5.93;;;;;;;32.64;24.50;101980.84;5052366;28;20037;-79
2023/06/05 10:58:00;;;;;;;8.90;5.78;;;;;;;32.23;24.13;101967.94;5051305;28;20457;-80
2023/06/05 11:00:29;;;;;;;7.63;6.00;;;;;;;31.72;25.40;101974.47;5037935;28;20523;-80
2023/06/05 11:02:55;;;;;;;8.98;6.15;;;;;;;32.18;24.70;101972.50;5053495;28;20060;-80
2023/06/05 11:05:20;;;;;;;6.78;5.82;;;;;;;32.36;24.86;101967.06;5052903;28;20029;-80
2023/06/05 11:07:46;;;;;;;6.55;5.30;;;;;;;32.42;24.69;101968.59;5043778;28;20029;-80
2023/06/05 11:10:21;;;;;;;6.05;5.38;;;;;;;32.57;24.39;101969.31;5038084;28;20633;-79
2023/06/05 11:12:46;;;;;;;6.95;5.65;;;;;;;32.64;24.13;101958.53;5052698;28;20029;-79
2023/06/05 11:15:13;;;;;;;8.23;5.53;;;;;;;32.09;25.26;101956.88;5052215;28;20029;-79
2023/06/05 11:17:40;;;;;;;5.18;4.78;;;;;;;33.34;23.73;101958.72;5053600;28;20104;-79
2023/06/05 11:20:12;;;;;;;7.65;5.60;;;;;;;33.29;23.87;101958.03;5051817;28;20108;-79
2023/06/05 11:22:55;;;;;;;8.32;6.00;;;;;;;32.88;23.68;101951.72;5042968;28;20021;-80
2023/06/05 11:25:21;;;;;;;8.68;4.60;;;;;;;32.51;24.90;101949.94;5052223;28;20468;-80
2023/06/05 11:27:47;;;;;;;7.07;5.30;;;;;;;32.54;24.75;101953.22;5050649;28;20048;-80
2023/06/05 11:30:13;;;;;;;6.65;5.32;;;;;;;32.54;24.57;101950.44;5053312;28;20032;-80
2023/06/05 11:32:39;;;;;;;6.38;5.07;;;;;;;32.39;24.33;101946.94;5051066;28;20100;-80